createdAt,value
2023-11-15T00:00:57.919Z,80.28
2023-11-15T00:02:01.099Z,80.51
2023-11-15T00:03:03.368Z,80.80
2023-11-15T00:04:07.989Z,80.87
2023-11-15T00:05:10.422Z,80.58
2023-11-15T00:06:13.376Z,80.89
2023-11-15T00:07:16.519Z,80.89
2023-11-15T00:08:18.717Z,80.85
2023-11-15T00:09:21.953Z,80.62
2023-11-15T00:10:24.170Z,80.77
2023-11-15T00:11:26.485Z,80.50
2023-11-15T00:12:32.754Z,80.51
2023-11-15T00:13:35.088Z,80.37
2023-11-15T00:14:38.762Z,80.66
2023-11-15T00:15:41.108Z,80.85
2023-11-15T00:16:44.270Z,80.98
2023-11-15T00:17:46.737Z,81.67
2023-11-15T00:18:50.005Z,81.53
2023-11-15T00:19:52.969Z,81.28
2023-11-15T00:20:56.185Z,81.38
2023-11-15T00:21:58.836Z,81.37
2023-11-15T00:23:02.760Z,80.80
2023-11-15T00:24:06.002Z,80.57
2023-11-15T00:25:10.087Z,80.90
2023-11-15T00:26:12.314Z,81.45
2023-11-15T00:27:15.537Z,81.51
2023-11-15T00:28:18.995Z,81.44
2023-11-15T00:29:22.822Z,81.37
2023-11-15T00:30:25.034Z,81.29
2023-11-15T00:31:28.107Z,81.34
2023-11-15T00:32:30.753Z,81.24
2023-11-15T00:33:34.058Z,81.32
2023-11-15T00:34:36.210Z,81.33
2023-11-15T00:35:39.420Z,81.11
2023-11-15T00:36:45.828Z,81.07
2023-11-15T00:37:48.512Z,81.21
2023-11-15T00:38:51.986Z,81.36
2023-11-15T00:39:54.913Z,81.11
2023-11-15T00:40:59.218Z,81.51
2023-11-15T00:42:01.943Z,81.32
2023-11-15T00:43:05.305Z,80.99
2023-11-15T00:44:08.878Z,80.74
2023-11-15T00:45:13.337Z,80.89
2023-11-15T00:46:16.786Z,81.00
2023-11-15T00:47:19.990Z,81.09
2023-11-15T00:48:22.271Z,81.08
2023-11-15T00:49:25.569Z,81.48
2023-11-15T00:50:27.870Z,81.10
2023-11-15T00:51:31.312Z,80.85
2023-11-15T00:52:34.382Z,81.12
2023-11-15T00:53:37.981Z,80.75
2023-11-15T00:54:40.136Z,81.40
2023-11-15T00:55:43.766Z,81.38
2023-11-15T00:56:46.016Z,81.29
2023-11-15T00:57:49.202Z,81.13
2023-11-15T00:58:51.393Z,81.00
2023-11-15T00:59:55.029Z,81.29
2023-11-15T01:01:00.885Z,81.54
2023-11-15T01:02:03.393Z,81.62
2023-11-15T01:03:06.807Z,81.42
2023-11-15T01:04:09.415Z,81.56
2023-11-15T01:05:12.709Z,81.56
2023-11-15T01:06:15.103Z,81.58
2023-11-15T01:07:18.249Z,81.50
2023-11-15T01:08:20.394Z,81.41
2023-11-15T01:09:24.971Z,81.47
2023-11-15T01:10:27.391Z,81.54
2023-11-15T01:11:30.564Z,81.39
2023-11-15T01:12:32.805Z,81.31
2023-11-15T01:13:36.601Z,81.12
2023-11-15T01:14:38.923Z,81.27
2023-11-15T01:15:43.642Z,81.38
2023-11-15T01:16:45.854Z,81.11
2023-11-15T01:17:49.096Z,81.23
2023-11-15T01:18:51.792Z,81.41
2023-11-15T01:19:55.035Z,81.49
2023-11-15T01:20:57.297Z,81.21
2023-11-15T01:22:00.501Z,81.13
2023-11-15T01:23:03.877Z,81.10
2023-11-15T01:24:08.270Z,81.14
2023-11-15T01:25:10.545Z,81.52
2023-11-15T01:26:13.739Z,81.34
2023-11-15T01:27:15.860Z,81.33
2023-11-15T01:28:19.031Z,81.53
2023-11-15T01:29:21.261Z,81.39
2023-11-15T01:30:25.069Z,81.30
2023-11-15T01:31:28.602Z,81.30
2023-11-15T01:32:32.530Z,81.38
2023-11-15T01:33:35.197Z,81.47
2023-11-15T01:34:38.493Z,81.48
2023-11-15T01:35:40.603Z,81.26
2023-11-15T01:36:43.722Z,81.37
2023-11-15T01:37:46.642Z,81.64
2023-11-15T01:38:49.807Z,81.47
2023-11-15T01:39:52.162Z,81.42
2023-11-15T01:40:55.369Z,81.68
2023-11-15T01:41:57.657Z,81.72
2023-11-15T01:43:01.010Z,81.65
2023-11-15T01:44:03.412Z,81.65
2023-11-15T01:45:07.531Z,81.78
2023-11-15T01:46:10.317Z,81.74
2023-11-15T01:47:15.732Z,81.72
2023-11-15T01:48:17.999Z,81.69
2023-11-15T01:49:23.892Z,81.67
2023-11-15T01:50:26.112Z,81.91
2023-11-15T01:51:29.277Z,81.89
2023-11-15T01:52:31.471Z,81.44
2023-11-15T01:53:34.755Z,81.49
2023-11-15T01:54:37.201Z,81.64
2023-11-15T01:55:40.732Z,81.67
2023-11-15T01:56:42.937Z,81.72
2023-11-15T01:57:46.097Z,81.67
2023-11-15T01:58:49.437Z,81.66
2023-11-15T01:59:52.055Z,81.63
2023-11-15T02:00:55.927Z,81.49
2023-11-15T02:01:58.184Z,81.41
2023-11-15T02:03:03.280Z,81.34
2023-11-15T02:04:05.742Z,81.50
2023-11-15T02:05:10.558Z,81.50
2023-11-15T02:06:13.096Z,81.40
2023-11-15T02:07:16.237Z,81.35
2023-11-15T02:08:18.459Z,81.18
2023-11-15T02:09:21.754Z,80.99
2023-11-15T02:10:24.193Z,81.14
2023-11-15T02:11:26.545Z,81.43
2023-11-15T02:12:29.746Z,81.36
2023-11-15T02:13:31.930Z,81.47
2023-11-15T02:14:35.118Z,81.47
2023-11-15T02:15:37.615Z,81.67
2023-11-15T02:16:45.919Z,81.63
2023-11-15T02:17:49.713Z,81.42
2023-11-15T02:18:54.365Z,81.26
2023-11-15T02:19:57.816Z,81.63
2023-11-15T02:21:00.989Z,81.78
2023-11-15T02:22:04.597Z,81.80
2023-11-15T02:23:07.953Z,81.45
2023-11-15T02:24:11.603Z,81.58
2023-11-15T02:25:15.158Z,81.70
2023-11-15T02:26:17.322Z,81.67
2023-11-15T02:27:20.461Z,81.74
2023-11-15T02:28:22.755Z,81.80
2023-11-15T02:29:26.238Z,81.51
2023-11-15T02:30:28.416Z,81.28
2023-11-15T02:31:33.148Z,81.46
2023-11-15T02:32:36.212Z,81.29
2023-11-15T02:33:38.516Z,81.10
2023-11-15T02:34:41.740Z,81.00
2023-11-15T02:35:43.946Z,81.20
2023-11-15T02:36:47.035Z,81.36
2023-11-15T02:37:49.235Z,81.28
2023-11-15T02:38:52.389Z,81.38
2023-11-15T02:39:55.917Z,81.28
2023-11-15T02:40:58.971Z,80.95
2023-11-15T02:42:01.204Z,81.00
2023-11-15T02:43:06.586Z,80.95
2023-11-15T02:44:11.450Z,80.90
2023-11-15T02:45:15.526Z,81.03
2023-11-15T02:46:18.891Z,81.01
2023-11-15T02:47:22.507Z,80.99
2023-11-15T02:48:24.868Z,81.11
2023-11-15T02:49:28.344Z,80.87
2023-11-15T02:50:31.313Z,81.12
2023-11-15T02:51:34.480Z,81.26
2023-11-15T02:52:37.141Z,81.61
2023-11-15T02:53:39.360Z,81.40
2023-11-15T02:54:42.429Z,81.71
2023-11-15T02:55:45.926Z,81.49
2023-11-15T02:56:49.052Z,81.39
2023-11-15T02:57:51.224Z,81.27
2023-11-15T02:58:54.504Z,81.62
2023-11-15T02:59:56.921Z,81.48
2023-11-15T03:01:00.164Z,81.32
2023-11-15T03:02:02.385Z,81.41
2023-11-15T03:03:05.838Z,81.82
2023-11-15T03:04:08.237Z,81.44
2023-11-15T03:05:11.898Z,81.31
2023-11-15T03:06:14.029Z,81.38
2023-11-15T03:07:18.446Z,81.28
2023-11-15T03:08:20.594Z,81.38
2023-11-15T03:09:23.728Z,81.21
2023-11-15T03:10:25.869Z,80.99
2023-11-15T03:11:30.544Z,81.49
2023-11-15T03:12:33.362Z,81.69
2023-11-15T03:13:36.586Z,81.58
2023-11-15T03:14:38.854Z,81.45
2023-11-15T03:15:42.171Z,81.21
2023-11-15T03:16:46.030Z,81.43
2023-11-15T03:17:49.297Z,81.44
2023-11-15T03:18:51.527Z,81.61
2023-11-15T03:19:54.778Z,81.56
2023-11-15T03:20:56.980Z,81.81
2023-11-15T03:22:00.100Z,81.32
2023-11-15T03:23:02.287Z,81.39
2023-11-15T03:24:06.060Z,81.40
2023-11-15T03:25:08.597Z,81.76
2023-11-15T03:26:11.692Z,81.88
2023-11-15T03:27:15.208Z,81.55
2023-11-15T03:28:18.335Z,81.58
2023-11-15T03:29:20.444Z,81.61
2023-11-15T03:30:23.558Z,81.73
2023-11-15T03:31:25.771Z,81.84
2023-11-15T03:32:30.119Z,81.74
2023-11-15T03:33:32.546Z,82.00
2023-11-15T03:34:37.690Z,82.05
2023-11-15T03:35:39.826Z,81.76
2023-11-15T03:36:44.057Z,82.15
2023-11-15T03:37:46.161Z,82.25
2023-11-15T03:38:48.315Z,81.88
2023-11-15T03:39:51.485Z,81.84
2023-11-15T03:40:54.391Z,81.87
2023-11-15T03:41:56.682Z,81.71
2023-11-15T03:43:01.167Z,81.95
2023-11-15T03:44:03.598Z,82.03
2023-11-15T03:45:07.557Z,82.25
2023-11-15T03:46:09.722Z,82.32
2023-11-15T03:47:12.874Z,82.27
2023-11-15T03:48:15.108Z,82.30
2023-11-15T03:49:18.382Z,82.14
2023-11-15T03:50:20.751Z,82.33
2023-11-15T03:51:24.175Z,82.30
2023-11-15T03:52:26.608Z,82.33
2023-11-15T03:53:31.608Z,82.51
2023-11-15T03:54:34.111Z,82.55
2023-11-15T03:55:37.295Z,82.76
2023-11-15T03:56:39.504Z,82.85
2023-11-15T03:57:44.044Z,82.69
2023-11-15T03:58:47.516Z,82.73
2023-11-15T03:59:51.222Z,82.62
2023-11-15T04:00:53.456Z,82.74
2023-11-15T04:01:57.851Z,82.79
2023-11-15T04:03:01.139Z,82.97
2023-11-15T04:04:04.660Z,82.74
2023-11-15T04:05:07.635Z,83.06
2023-11-15T04:06:11.220Z,82.83
2023-11-15T04:07:13.903Z,83.14
2023-11-15T04:08:16.287Z,82.64
2023-11-15T04:09:19.509Z,82.58
2023-11-15T04:10:22.551Z,82.57
2023-11-15T04:11:25.658Z,82.86
2023-11-15T04:12:27.892Z,83.11
2023-11-15T04:13:31.216Z,82.95
2023-11-15T04:14:36.360Z,82.58
2023-11-15T04:15:38.553Z,82.28
2023-11-15T04:16:41.859Z,82.31
2023-11-15T04:17:44.052Z,82.29
2023-11-15T04:18:47.459Z,82.44
2023-11-15T04:19:49.599Z,82.38
2023-11-15T04:20:52.713Z,81.95
2023-11-15T04:22:05.415Z,82.04
2023-11-15T04:23:15.637Z,81.92
2023-11-15T04:24:18.822Z,81.75
2023-11-15T04:25:21.961Z,81.65
2023-11-15T04:26:24.172Z,81.54
2023-11-15T04:27:29.895Z,81.71
2023-11-15T04:28:33.340Z,81.50
2023-11-15T04:29:38.854Z,81.46
2023-11-15T04:30:41.030Z,81.83
2023-11-15T04:31:44.175Z,81.74
2023-11-15T04:32:47.464Z,81.32
2023-11-15T04:33:50.659Z,80.70
2023-11-15T04:34:53.408Z,80.39
2023-11-15T04:35:55.594Z,80.66
2023-11-15T04:36:59.442Z,80.52
2023-11-15T04:38:04.604Z,80.61
2023-11-15T04:39:11.880Z,79.98
2023-11-15T04:40:14.427Z,79.34
2023-11-15T04:41:17.661Z,79.67
2023-11-15T04:42:21.378Z,79.31
2023-11-15T04:43:25.134Z,78.56
2023-11-15T04:44:28.769Z,78.94
2023-11-15T04:45:32.344Z,79.56
2023-11-15T04:46:36.287Z,78.29
2023-11-15T04:47:38.543Z,78.13
2023-11-15T04:48:41.719Z,78.18
2023-11-15T04:49:44.213Z,79.58
2023-11-15T04:50:47.384Z,79.64
2023-11-15T04:51:49.603Z,78.68
2023-11-15T04:52:54.727Z,78.58
2023-11-15T04:53:57.709Z,78.79
2023-11-15T04:55:00.902Z,79.27
2023-11-15T04:56:03.754Z,78.37
2023-11-15T04:57:07.278Z,78.39
2023-11-15T04:58:09.531Z,78.72
2023-11-15T04:59:11.669Z,78.59
2023-11-15T05:00:15.749Z,79.48
2023-11-15T05:01:19.387Z,79.71
2023-11-15T05:02:22.490Z,79.53
2023-11-15T05:03:24.961Z,79.53
2023-11-15T05:04:27.794Z,79.87
2023-11-15T05:05:31.113Z,79.74
2023-11-15T05:06:33.321Z,79.03
2023-11-15T05:07:37.955Z,78.26
2023-11-15T05:08:41.103Z,77.93
2023-11-15T05:09:43.297Z,79.05
2023-11-15T05:10:46.604Z,79.25
2023-11-15T05:11:48.748Z,78.27
2023-11-15T05:12:52.247Z,77.86
2023-11-15T05:13:54.409Z,77.92
2023-11-15T05:14:57.514Z,77.86
2023-11-15T05:15:59.898Z,78.91
2023-11-15T05:17:04.864Z,77.80
2023-11-15T05:18:07.133Z,77.11
2023-11-15T05:19:10.523Z,77.10
2023-11-15T05:20:12.966Z,76.88
2023-11-15T05:21:16.146Z,77.00
2023-11-15T05:22:18.348Z,76.60
2023-11-15T05:23:20.727Z,76.06
2023-11-15T05:24:23.805Z,77.03
2023-11-15T05:25:26.086Z,78.35
2023-11-15T05:26:30.288Z,79.03
2023-11-15T05:27:32.520Z,78.98
2023-11-15T05:28:36.188Z,76.92
2023-11-15T05:29:38.871Z,76.85
2023-11-15T05:30:42.456Z,77.28
2023-11-15T05:31:44.680Z,77.00
2023-11-15T05:32:49.319Z,76.95
2023-11-15T05:33:51.780Z,77.22
2023-11-15T05:34:54.895Z,77.55
2023-11-15T05:35:57.748Z,78.46
2023-11-15T05:37:00.886Z,79.03
2023-11-15T05:38:03.115Z,78.64
2023-11-15T05:39:07.654Z,77.81
2023-11-15T05:40:14.060Z,77.77
2023-11-15T05:41:17.272Z,77.91
2023-11-15T05:42:19.423Z,77.85
2023-11-15T05:43:22.602Z,77.54
2023-11-15T05:44:24.716Z,78.82
2023-11-15T05:45:27.809Z,78.98
2023-11-15T05:46:30.032Z,78.56
2023-11-15T05:47:33.357Z,78.25
2023-11-15T05:48:37.321Z,78.57
2023-11-15T05:49:40.132Z,78.55
2023-11-15T05:50:43.339Z,78.72
2023-11-15T05:51:45.614Z,78.82
2023-11-15T05:52:48.809Z,78.74
2023-11-15T05:53:51.092Z,78.62
2023-11-15T05:54:54.263Z,78.87
2023-11-15T05:55:56.455Z,78.80
2023-11-15T05:56:59.997Z,78.86
2023-11-15T05:58:02.221Z,78.82
2023-11-15T05:59:04.693Z,78.66
2023-11-15T06:00:19.563Z,78.55
2023-11-15T06:01:22.055Z,78.03
2023-11-15T06:02:25.208Z,78.20
2023-11-15T06:03:27.511Z,78.34
2023-11-15T06:04:32.037Z,78.39
2023-11-15T06:05:34.311Z,78.32
2023-11-15T06:06:37.410Z,78.24
2023-11-15T06:07:39.657Z,78.44
2023-11-15T06:08:41.902Z,78.89
2023-11-15T06:09:46.482Z,78.74
2023-11-15T06:10:49.643Z,78.66
2023-11-15T06:11:52.969Z,79.33
2023-11-15T06:12:56.229Z,79.05
2023-11-15T06:13:59.501Z,78.90
2023-11-15T06:15:02.128Z,78.90
2023-11-15T06:16:05.960Z,78.82
2023-11-15T06:17:08.938Z,78.92
2023-11-15T06:18:12.425Z,78.69
2023-11-15T06:19:14.671Z,78.98
2023-11-15T06:20:19.820Z,78.85
2023-11-15T06:21:22.132Z,78.66
2023-11-15T06:22:25.173Z,78.83
2023-11-15T06:23:28.377Z,78.64
2023-11-15T06:24:30.563Z,78.58
2023-11-15T06:25:34.194Z,78.69
2023-11-15T06:26:36.998Z,78.78
2023-11-15T06:27:40.639Z,78.91
2023-11-15T06:28:42.845Z,78.65
2023-11-15T06:29:48.444Z,78.82
2023-11-15T06:30:51.108Z,78.81
2023-11-15T06:31:55.900Z,78.91
2023-11-15T06:32:58.190Z,78.88
2023-11-15T06:34:00.552Z,79.07
2023-11-15T06:35:04.051Z,79.10
2023-11-15T06:36:09.499Z,79.17
2023-11-15T06:37:13.648Z,79.11
2023-11-15T06:38:15.757Z,79.31
2023-11-15T06:39:22.288Z,79.18
2023-11-15T06:40:24.738Z,79.27
2023-11-15T06:41:27.877Z,79.61
2023-11-15T06:42:30.056Z,79.50
2023-11-15T06:43:33.237Z,79.59
2023-11-15T06:44:35.539Z,79.69
2023-11-15T06:45:38.978Z,79.78
2023-11-15T06:46:41.176Z,79.61
2023-11-15T06:47:44.691Z,79.69
2023-11-15T06:48:48.389Z,79.52
2023-11-15T06:49:51.644Z,79.63
2023-11-15T06:50:53.911Z,79.69
2023-11-15T06:51:58.680Z,79.38
2023-11-15T06:53:00.901Z,79.80
2023-11-15T06:54:04.239Z,79.25
2023-11-15T06:55:07.802Z,79.28
2023-11-15T06:56:11.040Z,79.34
2023-11-15T06:57:13.279Z,79.10
2023-11-15T06:58:18.405Z,79.22
2023-11-15T06:59:21.120Z,78.68
2023-11-15T07:00:26.887Z,78.34
2023-11-15T07:01:29.216Z,78.53
2023-11-15T07:02:32.541Z,78.58
2023-11-15T07:03:35.080Z,78.01
2023-11-15T07:04:38.280Z,77.31
2023-11-15T07:05:41.869Z,76.51
2023-11-15T07:06:47.235Z,75.68
2023-11-15T07:07:51.177Z,75.40
2023-11-15T07:08:54.397Z,75.50
2023-11-15T07:09:56.536Z,75.69
2023-11-15T07:11:01.227Z,75.43
2023-11-15T07:12:05.533Z,75.24
2023-11-15T07:13:10.118Z,74.88
2023-11-15T07:14:12.312Z,75.37
2023-11-15T07:15:17.955Z,75.55
2023-11-15T07:16:21.444Z,75.80
2023-11-15T07:17:25.142Z,76.16
2023-11-15T07:18:29.028Z,75.75
2023-11-15T07:19:33.979Z,75.66
2023-11-15T07:20:38.755Z,75.84
2023-11-15T07:21:42.773Z,75.63
2023-11-15T07:22:45.887Z,75.78
2023-11-15T07:23:51.983Z,75.50
2023-11-15T07:24:54.851Z,75.67
2023-11-15T07:25:58.111Z,75.55
2023-11-15T07:27:00.559Z,75.43
2023-11-15T07:28:05.220Z,75.54
2023-11-15T07:29:07.925Z,75.57
2023-11-15T07:30:15.311Z,74.89
2023-11-15T07:31:20.140Z,75.20
2023-11-15T07:32:23.574Z,75.11
2023-11-15T07:33:25.856Z,74.59
2023-11-15T07:34:29.393Z,75.21
2023-11-15T07:35:31.826Z,74.98
2023-11-15T07:36:35.491Z,75.47
2023-11-15T07:37:38.500Z,75.18
2023-11-15T07:38:41.851Z,74.62
2023-11-15T07:39:45.404Z,74.95
2023-11-15T07:40:49.933Z,75.11
2023-11-15T07:41:52.424Z,74.57
2023-11-15T07:42:55.645Z,74.59
2023-11-15T07:43:57.859Z,74.80
2023-11-15T07:45:03.204Z,74.73
2023-11-15T07:46:11.114Z,74.11
2023-11-15T07:47:15.035Z,73.57
2023-11-15T07:48:18.177Z,73.34
2023-11-15T07:49:21.671Z,73.99
2023-11-15T07:50:24.752Z,73.28
2023-11-15T07:51:27.008Z,73.15
2023-11-15T07:52:30.224Z,73.08
2023-11-15T07:53:33.613Z,72.39
2023-11-15T07:54:36.749Z,71.93
2023-11-15T07:55:40.317Z,72.41
2023-11-15T07:56:43.696Z,72.18
2023-11-15T07:57:46.229Z,72.25
2023-11-15T07:58:50.789Z,73.00
2023-11-15T07:59:54.812Z,71.72
2023-11-15T08:00:57.567Z,71.28
2023-11-15T08:02:01.331Z,70.79
2023-11-15T08:03:05.621Z,69.64
2023-11-15T08:04:09.260Z,69.58
2023-11-15T08:05:11.718Z,69.85
2023-11-15T08:06:15.495Z,69.71
2023-11-15T08:07:18.257Z,69.75
2023-11-15T08:08:21.362Z,69.43
2023-11-15T08:09:27.808Z,69.89
2023-11-15T08:10:32.479Z,69.14
2023-11-15T08:11:36.251Z,69.02
2023-11-15T08:12:39.427Z,69.04
2023-11-15T08:13:57.052Z,68.53
2023-11-15T08:15:02.407Z,68.72
2023-11-15T08:16:05.676Z,68.33
2023-11-15T08:17:08.829Z,68.06
2023-11-15T08:18:11.145Z,67.59
2023-11-15T08:19:14.535Z,68.00
2023-11-15T08:20:18.843Z,68.58
2023-11-15T08:21:22.542Z,67.47
2023-11-15T08:22:24.770Z,67.77
2023-11-15T08:23:28.172Z,68.09
2023-11-15T08:24:32.742Z,67.23
2023-11-15T08:25:35.917Z,67.10
2023-11-15T08:26:41.056Z,66.61
2023-11-15T08:27:44.592Z,67.09
2023-11-15T08:28:48.296Z,66.94
2023-11-15T08:29:51.513Z,65.89
2023-11-15T08:30:54.061Z,65.51
2023-11-15T08:31:58.741Z,65.54
2023-11-15T08:33:01.222Z,65.84
2023-11-15T08:34:03.762Z,65.41
2023-11-15T08:35:07.922Z,65.86
2023-11-15T08:36:11.969Z,66.42
2023-11-15T08:37:15.083Z,66.03
2023-11-15T08:38:19.912Z,65.11
2023-11-15T08:39:24.097Z,65.61
2023-11-15T08:40:29.173Z,65.23
2023-11-15T08:41:32.918Z,64.64
2023-11-15T08:42:36.473Z,64.64
2023-11-15T08:43:41.534Z,64.67
2023-11-15T08:44:52.228Z,64.84
2023-11-15T08:45:58.814Z,65.01
2023-11-15T08:47:04.575Z,64.77
2023-11-15T08:48:26.133Z,64.71
2023-11-15T08:52:05.503Z,59.39
2023-11-15T08:53:07.598Z,62.82
2023-11-15T08:54:11.474Z,62.90
2023-11-15T08:55:13.885Z,61.91
2023-11-15T08:56:17.154Z,62.03
2023-11-15T08:57:19.776Z,61.81
2023-11-15T08:58:28.566Z,62.17
2023-11-15T08:59:30.762Z,62.00
2023-11-15T09:00:33.997Z,62.04
2023-11-15T09:01:36.128Z,61.67
2023-11-15T09:02:39.390Z,62.59
2023-11-15T09:03:42.422Z,62.99
2023-11-15T09:04:47.099Z,62.84
2023-11-15T09:05:50.385Z,62.16
2023-11-15T09:06:54.015Z,61.73
2023-11-15T09:07:57.553Z,61.61
2023-11-15T09:09:02.151Z,62.03
2023-11-15T09:10:05.415Z,61.81
2023-11-15T09:11:09.311Z,61.38
2023-11-15T09:12:29.196Z,61.91
2023-11-15T09:13:34.232Z,61.95
2023-11-15T09:14:37.420Z,62.38
2023-11-15T09:15:42.475Z,62.51
2023-11-15T09:16:46.115Z,62.45
2023-11-15T09:17:51.789Z,61.69
2023-11-15T09:18:56.766Z,62.01
2023-11-15T09:20:00.715Z,62.71
2023-11-15T09:21:04.619Z,62.78
2023-11-15T09:22:09.525Z,62.70
2023-11-15T09:23:22.405Z,62.76
2023-11-15T09:24:31.905Z,63.40
2023-11-15T09:25:36.745Z,63.49
2023-11-15T09:26:42.244Z,63.23
2023-11-15T09:27:44.759Z,63.96
2023-11-15T09:28:49.967Z,64.02
2023-11-15T09:29:53.112Z,63.65
2023-11-15T09:30:57.327Z,63.83
2023-11-15T09:32:01.452Z,64.00
2023-11-15T09:33:06.839Z,65.99
2023-11-15T09:34:09.440Z,67.28
2023-11-15T09:35:14.909Z,66.14
2023-11-15T09:36:17.310Z,66.07
2023-11-15T09:37:20.566Z,64.97
2023-11-15T09:38:24.246Z,64.80
2023-11-15T09:39:30.462Z,65.12
2023-11-15T09:40:33.464Z,65.21
2023-11-15T09:41:36.748Z,65.34
2023-11-15T09:42:43.401Z,65.24
2023-11-15T09:43:52.562Z,65.04
2023-11-15T09:44:54.759Z,65.43
2023-11-15T09:46:00.654Z,65.79
2023-11-15T09:47:13.340Z,65.43
2023-11-15T09:48:17.388Z,65.41
2023-11-15T09:49:21.998Z,65.42
2023-11-15T09:50:27.940Z,64.45
2023-11-15T09:51:35.369Z,63.42
2023-11-15T09:52:40.145Z,63.24
2023-11-15T09:53:45.694Z,63.51
2023-11-15T09:54:53.228Z,63.36
2023-11-15T09:56:00.554Z,63.24
2023-11-15T09:57:02.807Z,62.73
2023-11-15T09:58:06.213Z,62.95
2023-11-15T10:00:23.008Z,63.07
2023-11-15T10:01:27.677Z,62.86
2023-11-15T10:02:32.538Z,62.60
2023-11-15T10:03:40.875Z,63.06
2023-11-15T10:04:44.126Z,63.09
2023-11-15T10:05:59.010Z,62.73
2023-11-15T10:07:06.217Z,61.46
2023-11-15T10:08:12.073Z,61.89
2023-11-15T10:09:16.710Z,61.48
2023-11-15T10:10:20.264Z,61.61
2023-11-15T10:11:22.976Z,61.87
2023-11-15T10:12:37.236Z,61.80
2023-11-15T10:13:40.736Z,61.38
2023-11-15T10:14:54.786Z,61.66
2023-11-15T10:15:57.370Z,61.26
2023-11-15T10:17:02.166Z,61.23
2023-11-15T10:18:05.799Z,61.60
2023-11-15T10:19:28.489Z,61.65
2023-11-15T10:20:31.783Z,61.70
2023-11-15T10:21:35.060Z,60.86
2023-11-15T10:22:46.937Z,60.81
2023-11-15T10:23:50.228Z,60.67
2023-11-15T10:25:07.316Z,60.60
2023-11-15T10:26:10.692Z,60.13
2023-11-15T10:27:16.292Z,60.13
2023-11-15T10:28:22.314Z,60.13
2023-11-15T10:29:27.430Z,60.82
2023-11-15T10:30:29.787Z,60.45
2023-11-15T10:31:33.036Z,60.65
2023-11-15T10:32:35.402Z,61.01
2023-11-15T10:33:39.725Z,60.79
2023-11-15T10:34:52.894Z,60.58
2023-11-15T10:35:57.111Z,61.23
2023-11-15T10:37:04.248Z,61.51
2023-11-15T10:38:14.243Z,61.38
2023-11-15T10:39:16.789Z,62.02
2023-11-15T10:40:25.654Z,61.75
2023-11-15T10:41:32.074Z,62.34
2023-11-15T10:42:35.832Z,61.43
2023-11-15T10:43:38.994Z,62.32
2023-11-15T10:44:43.146Z,61.63
2023-11-15T10:45:46.982Z,61.38
2023-11-15T10:46:51.556Z,61.58
2023-11-15T10:47:57.960Z,61.28
2023-11-15T10:49:02.775Z,61.15
2023-11-15T10:50:14.316Z,61.34
2023-11-15T10:51:22.916Z,60.43
2023-11-15T10:52:26.072Z,60.91
2023-11-15T10:53:31.276Z,61.28
2023-11-15T10:54:34.070Z,60.68
2023-11-15T10:55:40.311Z,60.25
2023-11-15T10:56:42.860Z,59.83
2023-11-15T10:57:47.956Z,59.70
2023-11-15T10:58:51.469Z,60.54
2023-11-15T10:59:54.836Z,60.27
2023-11-15T11:00:57.181Z,60.10
2023-11-15T11:02:01.849Z,60.10
2023-11-15T11:03:05.352Z,60.45
2023-11-15T11:04:12.721Z,60.27
2023-11-15T11:05:24.891Z,60.21
2023-11-15T11:06:30.989Z,60.57
2023-11-15T11:07:41.527Z,60.34
2023-11-15T11:08:55.139Z,60.62
2023-11-15T11:10:03.414Z,60.17
2023-11-15T11:11:21.845Z,60.22
2023-11-15T11:12:24.115Z,60.61
2023-11-15T11:13:27.319Z,60.52
2023-11-15T11:14:29.485Z,60.31
2023-11-15T11:15:33.991Z,60.48
2023-11-15T11:16:37.451Z,60.58
2023-11-15T11:17:43.644Z,60.36
2023-11-15T11:19:18.086Z,59.64
2023-11-15T11:20:27.743Z,60.08
2023-11-15T11:22:08.997Z,60.08
2023-11-15T11:23:12.834Z,59.98
2023-11-15T11:24:16.848Z,59.85
2023-11-15T11:25:22.736Z,59.96
2023-11-15T11:26:38.348Z,60.44
2023-11-15T11:27:43.744Z,60.22
2023-11-15T11:29:04.178Z,60.61
2023-11-15T11:30:21.937Z,59.87
2023-11-15T11:31:27.183Z,59.63
2023-11-15T11:32:33.123Z,59.62
2023-11-15T11:33:36.731Z,59.74
2023-11-15T11:34:39.036Z,59.38
2023-11-15T11:35:42.374Z,59.24
2023-11-15T11:36:46.693Z,59.40
2023-11-15T11:37:53.654Z,59.17
2023-11-15T11:38:57.593Z,59.09
2023-11-15T11:40:01.458Z,59.39
2023-11-15T11:41:06.059Z,59.49
2023-11-15T11:42:25.393Z,59.38
2023-11-15T11:43:31.553Z,59.64
2023-11-15T11:44:52.209Z,59.58
2023-11-15T11:45:55.153Z,59.64
2023-11-15T11:47:04.696Z,59.25
2023-11-15T11:48:07.114Z,60.08
2023-11-15T11:49:10.270Z,59.83
2023-11-15T11:50:13.045Z,59.55
2023-11-15T11:51:16.360Z,59.84
2023-11-15T11:52:20.057Z,59.96
2023-11-15T11:53:22.398Z,59.66
2023-11-15T11:54:25.799Z,59.65
2023-11-15T11:55:32.669Z,59.59
2023-11-15T11:56:35.738Z,59.15
2023-11-15T11:57:39.713Z,58.93
2023-11-15T11:58:44.557Z,59.28
2023-11-15T11:59:59.477Z,59.66
2023-11-15T12:01:04.127Z,59.36
2023-11-15T12:02:07.772Z,59.49
2023-11-15T12:03:17.857Z,59.36
2023-11-15T12:04:22.013Z,59.42
2023-11-15T12:05:26.023Z,59.72
2023-11-15T12:06:29.255Z,59.86
2023-11-15T12:07:31.669Z,59.98
2023-11-15T12:08:35.353Z,59.55
2023-11-15T12:09:42.603Z,59.76
2023-11-15T12:10:45.193Z,59.79
2023-11-15T12:11:49.006Z,60.02
2023-11-15T12:12:57.279Z,59.75
2023-11-15T12:14:00.519Z,59.82
2023-11-15T12:15:02.820Z,59.77
2023-11-15T12:16:05.883Z,60.03
2023-11-15T12:17:09.176Z,60.02
2023-11-15T12:18:14.273Z,60.29
2023-11-15T12:19:20.388Z,59.89
2023-11-15T12:20:29.633Z,59.77
2023-11-15T12:21:33.245Z,59.84
2023-11-15T12:22:36.868Z,59.59
2023-11-15T12:23:41.512Z,59.29
2023-11-15T12:24:47.156Z,59.56
2023-11-15T12:25:53.638Z,59.51
2023-11-15T12:26:59.522Z,59.56
2023-11-15T12:28:03.216Z,59.75
2023-11-15T12:29:17.513Z,60.20
2023-11-15T12:30:19.817Z,60.06
2023-11-15T12:31:24.681Z,60.01
2023-11-15T12:32:26.914Z,59.43
2023-11-15T12:33:30.640Z,59.49
2023-11-15T12:34:33.163Z,59.89
2023-11-15T12:35:36.744Z,60.20
2023-11-15T12:36:39.592Z,60.82
2023-11-15T12:37:42.961Z,60.74
2023-11-15T12:38:55.436Z,60.59
2023-11-15T12:39:58.605Z,60.41
2023-11-15T12:41:07.381Z,59.60
2023-11-15T12:42:11.180Z,59.76
2023-11-15T12:43:16.054Z,59.70
2023-11-15T12:44:18.340Z,59.46
2023-11-15T12:45:31.131Z,59.50
2023-11-15T12:46:33.374Z,59.66
2023-11-15T12:47:36.638Z,60.17
2023-11-15T12:48:41.704Z,59.23
2023-11-15T12:49:44.948Z,59.65
2023-11-15T12:50:49.068Z,59.34
2023-11-15T12:51:53.045Z,59.68
2023-11-15T12:52:57.069Z,59.49
2023-11-15T12:54:02.904Z,59.59
2023-11-15T12:55:07.128Z,59.57
2023-11-15T12:56:16.260Z,58.84
2023-11-15T12:57:20.144Z,58.68
2023-11-15T12:58:46.912Z,59.03
2023-11-15T12:59:52.077Z,59.10
2023-11-15T13:00:58.717Z,59.05
2023-11-15T13:02:02.187Z,59.44
2023-11-15T13:03:18.407Z,58.57
2023-11-15T13:04:26.169Z,58.22
2023-11-15T13:05:29.369Z,58.16
2023-11-15T13:06:36.845Z,58.09
2023-11-15T13:07:40.339Z,57.35
2023-11-15T13:08:44.536Z,57.56
2023-11-15T13:09:48.109Z,57.53
2023-11-15T13:10:50.340Z,57.63
2023-11-15T13:11:53.697Z,57.85
2023-11-15T13:12:58.528Z,57.46
2023-11-15T13:14:03.662Z,56.82
2023-11-15T13:15:12.194Z,57.16
2023-11-15T13:16:16.187Z,57.41
2023-11-15T13:17:18.721Z,57.13
2023-11-15T13:18:22.192Z,56.47
2023-11-15T13:19:26.232Z,56.29
2023-11-15T13:20:29.488Z,56.61
2023-11-15T13:21:31.707Z,56.47
2023-11-15T13:22:35.495Z,57.08
2023-11-15T13:23:37.922Z,56.42
2023-11-15T13:24:42.808Z,56.42
2023-11-15T13:25:46.129Z,56.20
2023-11-15T13:26:51.204Z,56.30
2023-11-15T13:27:54.933Z,56.53
2023-11-15T13:28:57.387Z,56.53
2023-11-15T13:30:02.307Z,56.60
2023-11-15T13:31:08.605Z,56.62
2023-11-15T13:32:12.333Z,56.72
2023-11-15T13:33:15.277Z,56.73
2023-11-15T13:34:20.604Z,56.63
2023-11-15T13:35:23.080Z,56.41
2023-11-15T13:36:28.764Z,56.76
2023-11-15T13:37:31.475Z,57.05
2023-11-15T13:38:35.726Z,57.24
2023-11-15T13:39:39.017Z,57.33
2023-11-15T13:40:43.739Z,57.07
2023-11-15T13:41:46.180Z,56.92
2023-11-15T13:42:50.612Z,57.14
2023-11-15T13:43:53.998Z,57.38
2023-11-15T13:44:58.822Z,56.82
2023-11-15T13:46:03.347Z,56.62
2023-11-15T13:47:08.169Z,56.78
2023-11-15T13:48:10.799Z,56.98
2023-11-15T13:49:15.693Z,57.20
2023-11-15T13:50:18.431Z,57.57
2023-11-15T13:51:22.718Z,57.52